createdAt,value
2023-03-24T00:00:26.176Z,100146.84
2023-03-24T00:01:26.936Z,100145.98
2023-03-24T00:02:27.591Z,100145.20
2023-03-24T00:03:28.689Z,100144.48
2023-03-24T00:04:29.014Z,100143.72
2023-03-24T00:05:29.662Z,100143.12
2023-03-24T00:05:38.364Z,100150.70
2023-03-24T00:06:39.044Z,100124.97
2023-03-24T00:07:39.971Z,100125.31
2023-03-24T00:08:40.408Z,100124.73
2023-03-24T00:09:41.157Z,100124.91
2023-03-24T00:10:41.831Z,100124.78
2023-03-24T00:11:42.520Z,100124.16
2023-03-24T00:12:43.271Z,100124.00
2023-03-24T00:13:44.002Z,100123.05
2023-03-24T00:14:44.626Z,100121.83
2023-03-24T00:15:45.429Z,100120.29
2023-03-24T00:15:54.076Z,100041.27
2023-03-24T00:16:54.740Z,100102.09
2023-03-24T00:17:55.412Z,100101.20
2023-03-24T00:18:56.079Z,100100.52
2023-03-24T00:19:56.734Z,100099.84
2023-03-24T00:20:57.377Z,100098.77
2023-03-24T00:21:58.044Z,100098.23
2023-03-24T00:22:58.947Z,100097.69
2023-03-24T00:23:59.345Z,100096.39
2023-03-24T00:25:00.044Z,100094.98
2023-03-24T00:26:00.682Z,100093.77
2023-03-24T00:26:09.367Z,100029.20
2023-03-24T00:27:09.963Z,100073.50
2023-03-24T00:28:10.617Z,100073.69
2023-03-24T00:29:11.454Z,100073.39
2023-03-24T00:30:12.011Z,100072.69
2023-03-24T00:31:12.674Z,100071.95
2023-03-24T00:32:12.650Z,100071.48
2023-03-24T00:33:13.399Z,100071.45
2023-03-24T00:34:14.065Z,100070.69
2023-03-24T00:35:14.732Z,100069.02
2023-03-24T00:36:15.489Z,100067.59
2023-03-24T00:36:24.201Z,99986.23
2023-03-24T00:37:24.918Z,100039.73
2023-03-24T00:38:25.566Z,100038.72
2023-03-24T00:39:26.281Z,100038.39
2023-03-24T00:40:26.925Z,100037.47
2023-03-24T00:41:27.299Z,100037.30
2023-03-24T00:42:27.721Z,100035.89
2023-03-24T00:43:28.304Z,100034.30
2023-03-24T00:44:29.028Z,100033.03
2023-03-24T00:45:29.685Z,100031.77
2023-03-24T00:46:30.507Z,100030.55
2023-03-24T00:46:39.593Z,99972.72
2023-03-24T00:47:40.225Z,100011.80
2023-03-24T00:48:40.889Z,100011.42
2023-03-24T00:49:40.942Z,100011.60
2023-03-24T00:50:41.570Z,100010.64
2023-03-24T00:51:42.384Z,100009.69
2023-03-24T00:52:42.501Z,100007.84
2023-03-24T00:53:43.127Z,100006.43
2023-03-24T00:54:43.839Z,100004.33
2023-03-24T00:55:44.512Z,100002.48
2023-03-24T00:56:45.073Z,100000.16
2023-03-24T00:56:53.783Z,99896.83
2023-03-24T00:57:54.351Z,99960.33
2023-03-24T00:58:58.251Z,99959.82
2023-03-24T00:59:55.216Z,99959.39
2023-03-24T01:00:55.844Z,99958.70
2023-03-24T01:01:56.508Z,99957.72
2023-03-24T01:02:57.078Z,99956.73
2023-03-24T01:03:57.624Z,99955.59
2023-03-24T01:04:58.269Z,99954.27
2023-03-24T01:05:58.911Z,99953.66
2023-03-24T01:06:59.573Z,99952.42
2023-03-24T01:08:00.222Z,99951.27
2023-03-24T01:09:01.018Z,99950.17
2023-03-24T01:09:09.654Z,99880.99
2023-03-24T01:10:10.194Z,99938.78
2023-03-24T01:11:10.881Z,99938.09
2023-03-24T01:12:11.430Z,99937.09
2023-03-24T01:13:12.066Z,99936.75
2023-03-24T01:14:12.850Z,99936.42
2023-03-24T01:15:13.425Z,99935.92
2023-03-24T01:16:14.263Z,99934.73
2023-03-24T01:17:14.797Z,99933.55
2023-03-24T01:18:15.413Z,99932.70
2023-03-24T01:19:16.114Z,99931.73
2023-03-24T01:19:25.325Z,99857.46
2023-03-24T01:20:25.939Z,99912.77
2023-03-24T01:21:26.054Z,99912.09
2023-03-24T01:22:26.716Z,99911.42
2023-03-24T01:23:26.989Z,99911.00
2023-03-24T01:24:27.031Z,99909.95
2023-03-24T01:25:27.204Z,99908.77
2023-03-24T01:26:27.833Z,99907.08
2023-03-24T01:27:28.675Z,99905.59
2023-03-24T01:28:28.798Z,99903.73
2023-03-24T01:29:29.571Z,99902.63
2023-03-24T01:30:29.549Z,99900.60
2023-03-24T01:30:41.358Z,99790.11
2023-03-24T01:31:41.407Z,99877.66
2023-03-24T01:32:42.111Z,99876.73
2023-03-24T01:33:42.120Z,99876.39
2023-03-24T01:34:42.796Z,99875.59
2023-03-24T01:35:43.525Z,99874.26
2023-03-24T01:36:44.199Z,99873.16
2023-03-24T01:37:44.841Z,99871.60
2023-03-24T01:38:45.506Z,99870.08
2023-03-24T01:39:46.057Z,99868.31
2023-03-24T01:40:46.851Z,99866.28
2023-03-24T01:41:47.270Z,99864.09
2023-03-24T01:41:56.409Z,99782.08
2023-03-24T01:42:57.115Z,99837.89
2023-03-24T01:43:57.671Z,99837.21
2023-03-24T01:44:58.327Z,99836.95
2023-03-24T01:45:59.081Z,99836.69
2023-03-24T01:46:59.656Z,99836.23
2023-03-24T01:48:00.313Z,99835.39
2023-03-24T01:49:00.855Z,99834.28
2023-03-24T01:50:01.458Z,99833.44
2023-03-24T01:51:02.069Z,99832.13
2023-03-24T01:52:02.764Z,99830.53
2023-03-24T01:52:11.898Z,99754.80
2023-03-24T01:53:12.529Z,99806.27
2023-03-24T01:54:13.203Z,99805.42
2023-03-24T01:55:13.832Z,99804.97
2023-03-24T01:56:14.436Z,99804.12
2023-03-24T01:57:15.144Z,99803.34
2023-03-24T01:58:15.868Z,99802.67
2023-03-24T01:59:16.587Z,99802.26
2023-03-24T02:00:17.210Z,99801.03
2023-03-24T02:01:18.035Z,99799.77
2023-03-24T02:02:18.735Z,99798.33
2023-03-24T02:02:27.400Z,99739.95
2023-03-24T02:03:27.989Z,99776.00
2023-03-24T02:04:28.709Z,99775.58
2023-03-24T02:05:29.324Z,99775.41
2023-03-24T02:06:29.899Z,99774.73
2023-03-24T02:07:30.577Z,99773.89
2023-03-24T02:08:31.233Z,99772.87
2023-03-24T02:09:31.821Z,99772.45
2023-03-24T02:10:32.416Z,99771.65
2023-03-24T02:11:33.186Z,99770.38
2023-03-24T02:12:33.855Z,99769.60
2023-03-24T02:13:34.513Z,99768.47
2023-03-24T02:13:43.112Z,99715.90
2023-03-24T02:14:43.836Z,99754.63
2023-03-24T02:15:44.538Z,99754.12
2023-03-24T02:16:45.245Z,99752.94
2023-03-24T02:17:45.887Z,99752.01
2023-03-24T02:18:46.537Z,99751.03
2023-03-24T02:19:47.292Z,99749.69
2023-03-24T02:20:47.994Z,99748.84
2023-03-24T02:21:48.700Z,99747.88
2023-03-24T02:22:49.385Z,99747.38
2023-03-24T02:23:50.166Z,99747.34
2023-03-24T02:24:50.930Z,99746.09
2023-03-24T02:24:59.517Z,99741.34
2023-03-24T02:26:00.256Z,99730.81
2023-03-24T02:27:00.899Z,99730.47
2023-03-24T02:28:01.561Z,99730.02
2023-03-24T02:29:02.360Z,99729.99
2023-03-24T02:30:03.037Z,99729.06
2023-03-24T02:31:03.674Z,99727.81
2023-03-24T02:32:04.298Z,99726.87
2023-03-24T02:33:04.968Z,99725.58
2023-03-24T02:34:05.590Z,99724.16
2023-03-24T02:35:06.366Z,99723.35
2023-03-24T02:36:07.298Z,99722.27
2023-03-24T02:36:15.957Z,99727.89
2023-03-24T02:37:16.542Z,99704.63
2023-03-24T02:38:17.171Z,99704.63
2023-03-24T02:39:17.879Z,99704.63
2023-03-24T02:40:18.597Z,99704.37
2023-03-24T02:41:19.268Z,99704.73
2023-03-24T02:42:20.047Z,99705.20
2023-03-24T02:43:20.963Z,99705.89
2023-03-24T02:44:21.761Z,99706.11
2023-03-24T02:45:22.450Z,99706.70
2023-03-24T02:46:23.712Z,99706.77
2023-03-24T02:47:23.526Z,99706.81
2023-03-24T02:48:24.164Z,99707.17
2023-03-24T02:48:32.770Z,99725.72
2023-03-24T02:49:33.351Z,99707.86
2023-03-24T02:50:33.923Z,99707.28
2023-03-24T02:51:34.591Z,99706.77
2023-03-24T02:52:35.388Z,99706.27
2023-03-24T02:53:35.960Z,99705.83
2023-03-24T02:54:36.705Z,99705.38
2023-03-24T02:55:37.375Z,99704.61
2023-03-24T02:56:38.038Z,99703.66
2023-03-24T02:57:38.708Z,99703.41
2023-03-24T02:58:39.334Z,99702.05
2023-03-24T02:59:40.074Z,99700.65
2023-03-24T02:59:48.670Z,99644.57
2023-03-24T03:00:49.339Z,99690.02
2023-03-24T03:01:49.976Z,99689.60
2023-03-24T03:02:50.509Z,99689.44
2023-03-24T03:03:51.081Z,99688.76
2023-03-24T03:04:51.737Z,99688.76
2023-03-24T03:05:52.441Z,99689.00
2023-03-24T03:06:53.147Z,99688.37
2023-03-24T03:07:53.799Z,99688.35
2023-03-24T03:08:55.455Z,99688.80
2023-03-24T03:09:55.272Z,99688.56
2023-03-24T03:10:56.080Z,99688.83
2023-03-24T03:11:04.720Z,99717.05
2023-03-24T03:12:05.366Z,99695.69
2023-03-24T03:13:06.030Z,99695.52
2023-03-24T03:14:06.613Z,99695.94
2023-03-24T03:15:07.217Z,99695.77
2023-03-24T03:16:08.184Z,99696.31
2023-03-24T03:17:08.749Z,99695.98
2023-03-24T03:18:09.396Z,99696.05
2023-03-24T03:19:09.962Z,99696.00
2023-03-24T03:20:10.613Z,99696.33
2023-03-24T03:21:11.227Z,99697.08
2023-03-24T03:22:11.878Z,99696.74
2023-03-24T03:22:20.529Z,99714.62
2023-03-24T03:23:21.114Z,99693.25
2023-03-24T03:24:21.792Z,99693.37
2023-03-24T03:25:22.473Z,99692.67
2023-03-24T03:26:24.204Z,99693.29
2023-03-24T03:27:23.747Z,99693.05
2023-03-24T03:28:24.294Z,99693.30
2023-03-24T03:29:25.225Z,99693.14
2023-03-24T03:30:25.883Z,99692.81
2023-03-24T03:31:26.497Z,99693.19
2023-03-24T03:32:27.111Z,99693.14
2023-03-24T03:32:35.854Z,99725.39
2023-03-24T03:33:36.331Z,99698.30
2023-03-24T03:34:36.983Z,99698.33
2023-03-24T03:35:37.658Z,99698.91
2023-03-24T03:36:38.489Z,99699.45
2023-03-24T03:37:39.147Z,99699.58
2023-03-24T03:38:39.386Z,99700.80
2023-03-24T03:39:40.013Z,99701.00
2023-03-24T03:40:41.786Z,99702.77
2023-03-24T03:41:41.505Z,99704.32
2023-03-24T03:42:42.044Z,99706.05
2023-03-24T03:42:51.191Z,99746.55
2023-03-24T03:43:51.979Z,99722.39
2023-03-24T03:44:52.578Z,99722.47
2023-03-24T03:45:53.277Z,99722.72
2023-03-24T03:46:54.015Z,99723.58
2023-03-24T03:47:54.709Z,99724.47
2023-03-24T03:48:55.291Z,99725.28
2023-03-24T03:49:55.970Z,99726.14
2023-03-24T03:51:10.208Z,99727.70
2023-03-24T03:51:57.546Z,99728.66
2023-03-24T03:52:58.284Z,99729.34
2023-03-24T03:53:07.382Z,99767.03
2023-03-24T03:54:08.146Z,99750.75
2023-03-24T03:55:08.770Z,99750.23
2023-03-24T03:56:09.554Z,99749.89
2023-03-24T03:57:10.365Z,99749.05
2023-03-24T03:58:10.858Z,99747.23
2023-03-24T03:59:11.446Z,99746.87
2023-03-24T04:00:13.109Z,99746.48
2023-03-24T04:01:12.711Z,99746.96
2023-03-24T04:02:13.477Z,99746.50
2023-03-24T04:03:14.072Z,99747.16
2023-03-24T04:03:23.940Z,99796.25
2023-03-24T04:04:23.294Z,99757.72
2023-03-24T04:05:23.969Z,99757.81
2023-03-24T04:06:24.603Z,99757.81
2023-03-24T04:07:25.269Z,99757.98
2023-03-24T04:08:25.838Z,99758.84
2023-03-24T04:09:26.504Z,99759.59
2023-03-24T04:10:27.206Z,99759.59
2023-03-24T04:11:27.937Z,99759.76
2023-03-24T04:12:28.708Z,99759.66
2023-03-24T04:13:29.479Z,99760.22
2023-03-24T04:13:38.121Z,99794.05
2023-03-24T04:14:38.468Z,99777.25
2023-03-24T04:15:39.182Z,99776.75
2023-03-24T04:16:39.917Z,99776.06
2023-03-24T04:17:40.652Z,99774.80
2023-03-24T04:18:41.220Z,99774.88
2023-03-24T04:19:42.005Z,99775.56
2023-03-24T04:20:42.605Z,99775.90
2023-03-24T04:21:43.246Z,99775.66
2023-03-24T04:22:43.901Z,99775.75
2023-03-24T04:23:44.718Z,99776.77
2023-03-24T04:24:45.279Z,99777.88
2023-03-24T04:24:54.995Z,99807.11
2023-03-24T04:25:54.907Z,99784.57
2023-03-24T04:26:55.524Z,99784.57
2023-03-24T04:27:56.293Z,99785.08
2023-03-24T04:28:56.910Z,99784.73
2023-03-24T04:29:57.468Z,99784.91
2023-03-24T04:30:58.100Z,99785.59
2023-03-24T04:31:58.850Z,99786.27
2023-03-24T04:32:59.526Z,99786.88
2023-03-24T04:34:00.118Z,99787.72
2023-03-24T04:35:00.696Z,99787.72
2023-03-24T04:36:01.407Z,99788.56
2023-03-24T04:36:09.994Z,99827.20
2023-03-24T04:37:10.597Z,99809.29
2023-03-24T04:38:11.322Z,99808.20
2023-03-24T04:39:11.942Z,99807.78
2023-03-24T04:40:12.754Z,99807.74
2023-03-24T04:41:14.687Z,99807.93
2023-03-24T04:42:14.231Z,99807.93
2023-03-24T04:43:16.037Z,99808.19
2023-03-24T04:44:15.592Z,99807.69
2023-03-24T04:45:16.575Z,99808.70
2023-03-24T04:46:17.283Z,99809.17
2023-03-24T04:46:25.993Z,99837.52
2023-03-24T04:47:26.609Z,99827.75
2023-03-24T04:48:27.228Z,99827.17
2023-03-24T04:49:27.820Z,99825.73
2023-03-24T04:50:28.467Z,99824.80
2023-03-24T04:51:29.339Z,99823.27
2023-03-24T04:52:30.022Z,99822.42
2023-03-24T04:53:30.640Z,99822.33
2023-03-24T04:54:31.316Z,99822.33
2023-03-24T04:55:31.891Z,99822.57
2023-03-24T04:56:32.644Z,99823.42
2023-03-24T04:57:32.710Z,99823.69
2023-03-24T04:57:42.877Z,99845.92
2023-03-24T04:58:43.816Z,99824.50
2023-03-24T04:59:44.711Z,99824.84
2023-03-24T05:00:45.644Z,99824.84
2023-03-24T05:01:46.426Z,99826.20
2023-03-24T05:02:48.211Z,99826.13
2023-03-24T05:03:47.830Z,99826.97
2023-03-24T05:04:48.416Z,99827.81
2023-03-24T05:05:49.040Z,99828.91
2023-03-24T05:06:50.084Z,99830.44
2023-03-24T05:07:50.761Z,99832.64
2023-03-24T05:07:59.417Z,99869.00
2023-03-24T05:08:59.990Z,99847.29
2023-03-24T05:10:00.557Z,99847.14
2023-03-24T05:11:01.270Z,99847.65
2023-03-24T05:12:02.184Z,99848.45
2023-03-24T05:13:02.727Z,99848.21
2023-03-24T05:14:03.365Z,99847.28
2023-03-24T05:15:03.961Z,99848.05
2023-03-24T05:16:04.542Z,99848.23
2023-03-24T05:17:05.201Z,99847.89
2023-03-24T05:18:05.890Z,99848.36
2023-03-24T05:19:06.404Z,99849.54
2023-03-24T05:19:15.008Z,99877.41
2023-03-24T05:20:15.600Z,99854.36
2023-03-24T05:21:16.208Z,99854.63
2023-03-24T05:22:16.941Z,99854.87
2023-03-24T05:23:18.696Z,99854.75
2023-03-24T05:24:19.342Z,99854.84
2023-03-24T05:25:18.982Z,99855.45
2023-03-24T05:26:19.651Z,99855.70
2023-03-24T05:27:20.560Z,99855.67
2023-03-24T05:28:21.479Z,99855.85
2023-03-24T05:29:22.370Z,99856.63
2023-03-24T05:29:34.455Z,99884.52
2023-03-24T05:30:38.298Z,99869.31
2023-03-24T05:31:36.100Z,99868.56
2023-03-24T05:32:36.997Z,99869.03
2023-03-24T05:33:37.813Z,99869.63
2023-03-24T05:34:37.913Z,99869.65
2023-03-24T05:35:38.075Z,99869.09
2023-03-24T05:36:38.839Z,99868.61
2023-03-24T05:37:39.628Z,99868.48
2023-03-24T05:38:40.551Z,99868.48
2023-03-24T05:39:41.370Z,99866.97
2023-03-24T05:39:50.069Z,99883.72
2023-03-24T05:40:50.881Z,99861.17
2023-03-24T05:41:51.748Z,99861.10
2023-03-24T05:42:51.949Z,99861.10
2023-03-24T05:43:51.985Z,99861.39
2023-03-24T05:44:52.834Z,99860.98
2023-03-24T05:45:53.527Z,99860.98
2023-03-24T05:46:54.091Z,99860.91
2023-03-24T05:47:54.859Z,99860.66
2023-03-24T05:48:55.667Z,99860.62
2023-03-24T05:49:56.231Z,99860.55
2023-03-24T05:50:05.385Z,99876.12
2023-03-24T05:51:06.059Z,99861.72
2023-03-24T05:52:07.050Z,99861.72
2023-03-24T05:53:07.738Z,99861.13
2023-03-24T05:54:08.583Z,99860.28
2023-03-24T05:55:09.177Z,99859.50
2023-03-24T05:56:09.878Z,99858.77
2023-03-24T05:57:10.566Z,99858.75
2023-03-24T05:58:11.093Z,99856.72
2023-03-24T05:59:11.755Z,99856.67
2023-03-24T06:00:12.332Z,99856.41
2023-03-24T06:00:20.920Z,99881.79
2023-03-24T06:01:21.454Z,99863.05
2023-03-24T06:02:22.457Z,99862.71
2023-03-24T06:03:23.594Z,99863.87
2023-03-24T06:04:24.240Z,99863.47
2023-03-24T06:05:24.298Z,99864.22
2023-03-24T06:06:25.102Z,99863.97
2023-03-24T06:07:25.700Z,99863.86
2023-03-24T06:08:26.566Z,99863.78
2023-03-24T06:09:26.623Z,99863.86
2023-03-24T06:10:27.572Z,99864.06
2023-03-24T06:11:28.337Z,99864.91
2023-03-24T06:11:36.966Z,99891.55
2023-03-24T06:12:37.605Z,99868.48
2023-03-24T06:13:38.548Z,99868.89
2023-03-24T06:14:39.175Z,99869.81
2023-03-24T06:15:39.997Z,99870.49
2023-03-24T06:16:40.528Z,99871.55
2023-03-24T06:17:40.967Z,99872.48
2023-03-24T06:18:41.706Z,99873.23
2023-03-24T06:19:42.366Z,99874.66
2023-03-24T06:20:43.035Z,99875.46
2023-03-24T06:21:43.688Z,99876.05
2023-03-24T06:21:52.905Z,99906.17
2023-03-24T06:22:53.182Z,99887.47
2023-03-24T06:23:53.811Z,99887.30
2023-03-24T06:24:54.500Z,99886.69
2023-03-24T06:25:55.186Z,99887.15
2023-03-24T06:26:55.796Z,99888.15
2023-03-24T06:27:56.431Z,99889.11
2023-03-24T06:28:57.524Z,99891.00
2023-03-24T06:29:57.107Z,99891.86
2023-03-24T06:30:57.866Z,99893.36
2023-03-24T06:31:58.531Z,99895.17
2023-03-24T06:32:59.336Z,99896.73
2023-03-24T06:33:08.557Z,99924.86
2023-03-24T06:34:09.007Z,99908.58
2023-03-24T06:35:09.745Z,99908.98
2023-03-24T06:36:10.512Z,99908.86
2023-03-24T06:37:10.534Z,99908.70
2023-03-24T06:38:11.179Z,99909.03
2023-03-24T06:39:11.808Z,99909.25
2023-03-24T06:40:13.461Z,99909.86
2023-03-24T06:41:13.065Z,99910.70
2023-03-24T06:42:13.839Z,99911.00
2023-03-24T06:43:15.510Z,99911.77
2023-03-24T06:43:24.605Z,99943.31
2023-03-24T06:44:26.208Z,99922.69
2023-03-24T06:45:25.976Z,99922.94
2023-03-24T06:46:26.081Z,99923.05
2023-03-24T06:47:26.703Z,99923.47
2023-03-24T06:48:27.361Z,99922.86
2023-03-24T06:49:27.509Z,99923.75
2023-03-24T06:50:28.140Z,99924.68
2023-03-24T06:51:28.954Z,99925.36
2023-03-24T06:52:29.580Z,99927.25
2023-03-24T06:53:30.243Z,99929.70
2023-03-24T06:54:30.874Z,99931.52
2023-03-24T06:54:42.561Z,99991.84
2023-03-24T06:55:43.378Z,99975.02
2023-03-24T06:56:43.850Z,99975.18
2023-03-24T06:57:44.585Z,99975.25
2023-03-24T06:58:45.208Z,99975.96
2023-03-24T06:59:45.756Z,99976.16
2023-03-24T07:00:46.887Z,99976.89
2023-03-24T07:01:47.555Z,99976.84
2023-03-24T07:02:47.780Z,99977.38
2023-03-24T07:03:47.853Z,99977.91
2023-03-24T07:04:47.751Z,99978.81
2023-03-24T07:05:48.476Z,99979.34
2023-03-24T07:05:58.779Z,100007.22
2023-03-24T07:07:19.183Z,99993.10
2023-03-24T07:09:00.388Z,99992.91
2023-03-24T07:10:00.986Z,99993.00
2023-03-24T07:11:01.710Z,99993.61
2023-03-24T07:12:02.349Z,99994.28
2023-03-24T07:13:03.346Z,99994.45
2023-03-24T07:14:03.854Z,99994.97
2023-03-24T07:15:04.696Z,99996.06
2023-03-24T07:16:04.773Z,99996.23
2023-03-24T07:16:13.357Z,100033.61
2023-03-24T07:17:14.006Z,100013.22
2023-03-24T07:18:14.248Z,100012.77
2023-03-24T07:19:14.842Z,100012.50
2023-03-24T07:20:16.529Z,100012.45
2023-03-24T07:21:16.243Z,100012.55
2023-03-24T07:22:16.785Z,100013.06
2023-03-24T07:23:17.439Z,100013.03
2023-03-24T07:24:18.141Z,100013.06
2023-03-24T07:25:19.185Z,100013.34
2023-03-24T07:26:18.846Z,100013.39
2023-03-24T07:26:27.521Z,100040.25
2023-03-24T07:27:28.226Z,100026.66
2023-03-24T07:28:28.923Z,100026.08
2023-03-24T07:29:29.578Z,100026.20
2023-03-24T07:30:39.710Z,100025.06
2023-03-24T07:31:31.047Z,100025.64
2023-03-24T07:32:31.703Z,100025.42
2023-03-24T07:33:32.201Z,100025.69
2023-03-24T07:34:32.867Z,100026.47
2023-03-24T07:35:33.609Z,100027.09
2023-03-24T07:36:34.361Z,100028.15
2023-03-24T07:37:34.994Z,100030.05
2023-03-24T07:37:46.244Z,100074.89
2023-03-24T07:38:46.369Z,100052.31
2023-03-24T07:39:46.511Z,100051.72
2023-03-24T07:40:47.265Z,100051.70
2023-03-24T07:41:47.631Z,100051.41
2023-03-24T07:42:49.404Z,100051.22
2023-03-24T07:43:49.014Z,100051.55
2023-03-24T07:44:49.790Z,100051.05
2023-03-24T07:45:50.492Z,100051.09
2023-03-24T07:46:52.236Z,100051.55
2023-03-24T07:47:52.076Z,100053.98
2023-03-24T07:48:01.378Z,100131.86
2023-03-24T07:49:11.870Z,100113.93
2023-03-24T07:50:01.943Z,100114.75
2023-03-24T07:51:02.703Z,100115.53
2023-03-24T07:52:03.488Z,100117.11
2023-03-24T07:53:05.136Z,100118.48
2023-03-24T07:54:04.839Z,100120.05
2023-03-24T07:55:05.510Z,100122.25
2023-03-24T07:56:06.355Z,100124.61
2023-03-24T07:57:08.952Z,100126.86
2023-03-24T07:58:07.788Z,100128.69
2023-03-24T07:58:20.834Z,100175.33
2023-03-24T07:59:20.590Z,100160.13
2023-03-24T08:00:21.217Z,100159.50
2023-03-24T08:01:21.503Z,100159.77
2023-03-24T08:02:22.583Z,100160.72
2023-03-24T08:03:23.259Z,100162.08
2023-03-24T08:04:24.480Z,100163.72
2023-03-24T08:05:24.106Z,100165.83
2023-03-24T08:06:24.620Z,100168.09
2023-03-24T08:07:25.378Z,100169.92
2023-03-24T08:08:26.028Z,100172.02
2023-03-24T08:09:26.724Z,100173.91
2023-03-24T08:09:36.104Z,100219.10
2023-03-24T08:10:36.146Z,100210.15
2023-03-24T08:11:36.675Z,100210.53
2023-03-24T08:12:36.704Z,100210.67
2023-03-24T08:13:37.602Z,100210.63
2023-03-24T08:14:38.267Z,100210.44
2023-03-24T08:15:38.815Z,100209.75
2023-03-24T08:16:39.660Z,100209.63
2023-03-24T08:17:40.381Z,100210.37
2023-03-24T08:18:40.993Z,100210.42
2023-03-24T08:19:56.065Z,100210.56
2023-03-24T08:20:42.237Z,100210.78
2023-03-24T08:20:50.903Z,100237.35
2023-03-24T08:21:51.540Z,100219.19
2023-03-24T08:22:52.302Z,100219.11
2023-03-24T08:23:53.030Z,100219.86
2023-03-24T08:24:53.747Z,100220.28
2023-03-24T08:25:54.513Z,100220.33
2023-03-24T08:26:55.391Z,100221.34
2023-03-24T08:27:56.265Z,100221.93
2023-03-24T08:28:56.926Z,100222.69
2023-03-24T08:29:57.646Z,100222.47
2023-03-24T08:30:58.544Z,100222.67
2023-03-24T08:31:59.231Z,100223.34
2023-03-24T08:32:08.389Z,100252.03
2023-03-24T08:33:09.876Z,100236.06
2023-03-24T08:34:09.974Z,100235.31
2023-03-24T08:35:10.524Z,100235.14
2023-03-24T08:36:11.292Z,100234.47
2023-03-24T08:37:11.972Z,100232.73
2023-03-24T08:38:12.774Z,100231.30
2023-03-24T08:39:13.460Z,100229.61
2023-03-24T08:40:14.098Z,100227.50
2023-03-24T08:41:14.795Z,100225.30
2023-03-24T08:42:15.409Z,100222.39
2023-03-24T08:42:24.064Z,100194.89
2023-03-24T08:43:24.103Z,100175.39
2023-03-24T08:44:24.845Z,100175.22
2023-03-24T08:45:25.636Z,100174.71
2023-03-24T08:46:26.393Z,100174.08
2023-03-24T08:47:27.131Z,100173.58
2023-03-24T08:48:27.936Z,100173.28
2023-03-24T08:49:29.673Z,100172.36
2023-03-24T08:50:29.272Z,100171.41
2023-03-24T08:51:29.717Z,100170.02
2023-03-24T08:52:29.813Z,100168.75
2023-03-24T08:52:41.479Z,100076.09
2023-03-24T08:53:42.311Z,100132.66
2023-03-24T08:54:43.044Z,100132.88
2023-03-24T08:55:43.803Z,100132.73
2023-03-24T08:56:44.465Z,100132.40
2023-03-24T08:57:45.112Z,100132.48
2023-03-24T08:58:45.825Z,100132.46
2023-03-24T08:59:48.976Z,100132.30
2023-03-24T09:00:47.079Z,100131.79
2023-03-24T09:01:47.726Z,100131.95
2023-03-24T09:02:48.369Z,100131.33
2023-03-24T09:02:57.029Z,100149.76
2023-03-24T09:03:57.643Z,100138.13
2023-03-24T09:04:58.261Z,100137.96
2023-03-24T09:05:59.039Z,100138.38
2023-03-24T09:07:00.998Z,100138.81
2023-03-24T09:08:00.402Z,100139.48
2023-03-24T09:09:01.101Z,100140.68
2023-03-24T09:10:01.747Z,100142.30
2023-03-24T09:11:02.735Z,100143.70
2023-03-24T09:12:03.617Z,100145.33
2023-03-24T09:13:04.494Z,100147.67
2023-03-24T09:13:15.076Z,100204.53
2023-03-24T09:14:15.881Z,100186.11
2023-03-24T09:15:16.499Z,100185.14
2023-03-24T09:16:17.446Z,100185.14
2023-03-24T09:17:18.087Z,100185.47
2023-03-24T09:18:18.778Z,100185.42
2023-03-24T09:19:18.803Z,100185.54
2023-03-24T09:20:19.389Z,100185.27
2023-03-24T09:21:20.348Z,100184.92
2023-03-24T09:22:21.067Z,100184.27
2023-03-24T09:23:21.726Z,100184.67
2023-03-24T09:23:30.861Z,100209.91
2023-03-24T09:24:30.999Z,100183.91
2023-03-24T09:25:31.725Z,100184.25
2023-03-24T09:26:32.377Z,100184.67
2023-03-24T09:27:33.170Z,100185.72
2023-03-24T09:28:33.828Z,100186.97
2023-03-24T09:29:34.447Z,100188.20
2023-03-24T09:30:35.325Z,100189.87
2023-03-24T09:31:36.104Z,100191.78
2023-03-24T09:32:36.833Z,100193.53
2023-03-24T09:33:37.619Z,100195.35
2023-03-24T09:34:38.559Z,100198.38
2023-03-24T09:34:47.134Z,100264.72
2023-03-24T09:35:47.908Z,100247.11
2023-03-24T09:36:48.502Z,100246.98
2023-03-24T09:37:49.124Z,100247.22
2023-03-24T09:38:49.769Z,100247.63
2023-03-24T09:39:50.495Z,100248.23
2023-03-24T09:40:51.188Z,100248.42
2023-03-24T09:41:51.811Z,100249.39
2023-03-24T09:42:52.483Z,100250.92
2023-03-24T09:43:53.295Z,100252.34
2023-03-24T09:44:54.099Z,100253.66
2023-03-24T09:45:56.747Z,100254.58
2023-03-24T09:46:05.377Z,100292.71
2023-03-24T09:47:05.467Z,100264.26
2023-03-24T09:48:06.185Z,100264.04
2023-03-24T09:49:06.657Z,100264.06
2023-03-24T09:50:07.364Z,100263.31
2023-03-24T09:51:08.139Z,100262.82
2023-03-24T09:52:08.787Z,100262.32
2023-03-24T09:53:09.598Z,100261.84
2023-03-24T09:54:10.355Z,100262.58
2023-03-24T09:55:10.998Z,100262.60
2023-03-24T09:56:11.744Z,100262.66
2023-03-24T09:56:20.491Z,100277.78
2023-03-24T09:57:21.140Z,100255.27
2023-03-24T09:58:21.817Z,100254.73
2023-03-24T09:59:22.500Z,100254.54
2023-03-24T10:00:23.283Z,100254.43
2023-03-24T10:01:24.189Z,100254.40
2023-03-24T10:02:24.867Z,100254.75
2023-03-24T10:03:25.759Z,100255.49
2023-03-24T10:04:26.474Z,100256.03
2023-03-24T10:05:27.210Z,100258.31
2023-03-24T10:06:28.008Z,100260.42
2023-03-24T10:06:37.687Z,100317.21
2023-03-24T10:07:38.644Z,100293.88
2023-03-24T10:08:39.556Z,100293.31
2023-03-24T10:09:39.711Z,100294.23
2023-03-24T10:10:40.572Z,100294.95
2023-03-24T10:11:41.169Z,100295.77
2023-03-24T10:12:41.800Z,100296.17
2023-03-24T10:13:42.529Z,100296.53
2023-03-24T10:14:43.232Z,100297.13
2023-03-24T10:15:44.005Z,100297.98
2023-03-24T10:16:44.825Z,100299.29
2023-03-24T10:16:55.967Z,100338.16
2023-03-24T10:17:56.916Z,100313.41
2023-03-24T10:18:57.819Z,100313.29
2023-03-24T10:20:00.346Z,100313.91
2023-03-24T10:20:59.076Z,100313.91
2023-03-24T10:21:59.819Z,100314.09
2023-03-24T10:23:00.429Z,100314.84
2023-03-24T10:24:01.128Z,100316.03
2023-03-24T10:25:01.852Z,100315.61
2023-03-24T10:26:02.741Z,100315.88
2023-03-24T10:27:03.499Z,100315.86
2023-03-24T10:28:04.341Z,100316.59
2023-03-24T10:28:12.967Z,100331.58
2023-03-24T10:29:13.612Z,100323.44
2023-03-24T10:30:14.371Z,100323.02
2023-03-24T10:31:15.133Z,100323.82
2023-03-24T10:32:15.763Z,100323.74
2023-03-24T10:33:16.504Z,100323.50
2023-03-24T10:34:17.247Z,100324.23
2023-03-24T10:35:18.011Z,100325.03
2023-03-24T10:36:18.948Z,100326.11
2023-03-24T10:37:19.643Z,100326.93
2023-03-24T10:38:20.266Z,100327.64
2023-03-24T10:39:24.266Z,100329.00
2023-03-24T10:40:21.819Z,100330.09
2023-03-24T10:40:33.475Z,100360.95
2023-03-24T10:41:31.686Z,100340.02
2023-03-24T10:42:32.636Z,100340.58
2023-03-24T10:43:33.378Z,100341.91
2023-03-24T10:44:34.058Z,100343.28
2023-03-24T10:45:34.916Z,100344.81
2023-03-24T10:46:35.299Z,100346.49
2023-03-24T10:47:36.264Z,100349.14
2023-03-24T10:48:37.154Z,100351.09
2023-03-24T10:49:37.901Z,100353.11
2023-03-24T10:50:37.992Z,100356.22
2023-03-24T10:51:38.929Z,100358.66
2023-03-24T10:51:48.599Z,100418.92